createdAt,value
2022-12-25T00:01:26.674Z,99735.72
2022-12-25T00:03:54.498Z,99747.63
2022-12-25T00:06:22.031Z,99753.31
2022-12-25T00:08:50.869Z,99751.38
2022-12-25T00:11:20.651Z,99755.81
2022-12-25T00:13:48.927Z,99756.69
2022-12-25T00:16:18.652Z,99758.91
2022-12-25T00:18:46.667Z,99752.50
2022-12-25T00:21:15.385Z,99746.53
2022-12-25T00:23:43.346Z,99750.84
2022-12-25T00:26:14.212Z,99762.94
2022-12-25T00:28:41.681Z,99748.72
2022-12-25T00:31:11.264Z,99751.38
2022-12-25T00:33:40.722Z,99750.19
2022-12-25T00:36:09.559Z,99751.44
2022-12-25T00:38:39.110Z,99747.69
2022-12-25T00:41:07.887Z,99743.22
2022-12-25T00:43:37.100Z,99737.84
2022-12-25T00:46:06.802Z,99740.56
2022-12-25T00:48:35.397Z,99740.66
2022-12-25T00:51:05.252Z,99738.84
2022-12-25T00:53:34.324Z,99741.09
2022-12-25T00:56:04.672Z,99743.78
2022-12-25T00:58:33.670Z,99739.63
2022-12-25T01:01:03.687Z,99748.72
2022-12-25T01:03:31.654Z,99743.09
2022-12-25T01:06:01.228Z,99738.19
2022-12-25T01:08:30.957Z,99743.50
2022-12-25T01:10:59.473Z,99752.59
2022-12-25T01:13:27.085Z,99747.56
2022-12-25T01:15:54.829Z,99733.47
2022-12-25T01:18:25.375Z,99729.22
2022-12-25T01:20:52.907Z,99733.75
2022-12-25T01:23:20.388Z,99743.03
2022-12-25T01:25:47.893Z,99744.25
2022-12-25T01:28:16.569Z,99747.19
2022-12-25T01:30:49.023Z,99755.25
2022-12-25T01:33:16.485Z,99747.69
2022-12-25T01:35:45.315Z,99738.75
2022-12-25T01:38:12.818Z,99749.69
2022-12-25T01:40:40.382Z,99744.34
2022-12-25T01:43:21.222Z,99746.03
2022-12-25T01:45:49.342Z,99736.34
2022-12-25T01:48:20.802Z,99730.22
2022-12-25T01:50:54.614Z,99725.59
2022-12-25T01:53:22.781Z,99715.91
2022-12-25T01:55:54.740Z,99717.19
2022-12-25T01:58:22.448Z,99711.59
2022-12-25T02:00:52.154Z,99711.25
2022-12-25T02:03:20.851Z,99713.13
2022-12-25T02:05:51.385Z,99720.88
2022-12-25T02:08:21.434Z,99725.28
2022-12-25T02:10:49.092Z,99731.97
2022-12-25T02:13:20.223Z,99738.63
2022-12-25T02:15:56.456Z,99733.44
2022-12-25T02:18:34.934Z,99737.91
2022-12-25T02:21:31.062Z,99745.06
2022-12-25T02:24:10.659Z,99749.28
2022-12-25T02:27:17.051Z,99750.09
2022-12-25T02:29:50.432Z,99751.31
2022-12-25T02:32:25.301Z,99748.66
2022-12-25T02:34:59.417Z,99752.69
2022-12-25T02:37:32.828Z,99745.91
2022-12-25T02:40:06.697Z,99748.84
2022-12-25T02:42:55.521Z,99749.38
2022-12-25T02:45:47.169Z,99752.19
2022-12-25T02:48:34.415Z,99747.38
2022-12-25T02:51:23.768Z,99752.13
2022-12-25T02:54:11.563Z,99739.41
2022-12-25T02:56:58.795Z,99738.19
2022-12-25T02:59:46.817Z,99741.66
2022-12-25T03:02:34.803Z,99734.16
2022-12-25T03:05:23.097Z,99745.09
2022-12-25T03:07:51.198Z,99741.41
2022-12-25T03:10:39.717Z,99746.69
2022-12-25T03:13:13.546Z,99743.16
2022-12-25T03:15:58.267Z,99739.47
2022-12-25T03:18:29.738Z,99737.84
2022-12-25T03:21:14.818Z,99743.75
2022-12-25T03:24:18.175Z,99739.88
2022-12-25T03:26:58.386Z,99743.19
2022-12-25T03:29:46.965Z,99741.44
2022-12-25T03:32:27.224Z,99736.06
2022-12-25T03:35:25.526Z,99729.88
2022-12-25T03:38:32.732Z,99729.44
2022-12-25T03:41:29.756Z,99722.09
2022-12-25T03:44:37.192Z,99714.31
2022-12-25T03:47:31.324Z,99715.81
2022-12-25T03:50:23.318Z,99705.69
2022-12-25T03:53:09.660Z,99691.47
2022-12-25T03:55:54.606Z,99698.66
2022-12-25T03:58:42.106Z,99695.06
2022-12-25T04:01:28.177Z,99690.84
2022-12-25T04:04:13.657Z,99686.56
2022-12-25T04:06:59.406Z,99670.78
2022-12-25T04:09:44.215Z,99663.13
2022-12-25T04:12:29.572Z,99660.41
2022-12-25T04:15:14.985Z,99675.94
2022-12-25T04:18:02.409Z,99676.28
2022-12-25T04:20:47.786Z,99674.91
2022-12-25T04:23:34.377Z,99693.03
2022-12-25T04:26:22.063Z,99704.78
2022-12-25T04:29:07.420Z,99698.00
2022-12-25T04:31:52.657Z,99702.25
2022-12-25T04:34:43.146Z,99702.41
2022-12-25T04:37:10.712Z,99692.69
2022-12-25T04:39:39.580Z,99693.53
2022-12-25T04:42:07.044Z,99688.59
2022-12-25T04:44:35.236Z,99682.69
2022-12-25T04:47:07.567Z,99697.88
2022-12-25T04:49:38.527Z,99697.16
2022-12-25T04:52:06.285Z,99691.69
2022-12-25T04:54:33.859Z,99691.88
2022-12-25T04:57:02.676Z,99677.66
2022-12-25T04:59:30.225Z,99674.50
2022-12-25T05:01:57.811Z,99673.28
2022-12-25T05:04:25.414Z,99672.13
2022-12-25T05:06:52.915Z,99665.44
2022-12-25T05:09:20.753Z,99669.41
2022-12-25T05:11:48.269Z,99660.69
2022-12-25T05:14:17.649Z,99663.72
2022-12-25T05:16:45.448Z,99656.69
2022-12-25T05:19:13.275Z,99661.91
2022-12-25T05:21:40.767Z,99659.41
2022-12-25T05:24:08.433Z,99662.13
2022-12-25T05:26:35.923Z,99661.56
2022-12-25T05:29:03.417Z,99656.59
2022-12-25T05:31:32.407Z,99658.88
2022-12-25T05:33:59.968Z,99655.50
2022-12-25T05:36:27.732Z,99649.47
2022-12-25T05:38:55.454Z,99648.81
2022-12-25T05:41:22.938Z,99647.72
2022-12-25T05:43:53.273Z,99632.94
2022-12-25T05:46:20.824Z,99640.19
2022-12-25T05:48:49.666Z,99634.38
2022-12-25T05:51:17.156Z,99635.25
2022-12-25T05:53:45.537Z,99637.69
2022-12-25T05:56:13.436Z,99637.53
2022-12-25T05:58:41.656Z,99629.44
2022-12-25T06:01:14.049Z,99636.53
2022-12-25T06:03:41.702Z,99644.88
2022-12-25T06:06:10.996Z,99644.88
2022-12-25T06:08:38.576Z,99649.06
2022-12-25T06:11:07.477Z,99654.56
2022-12-25T06:13:35.827Z,99646.16
2022-12-25T06:16:04.825Z,99643.47
2022-12-25T06:18:32.355Z,99644.88
2022-12-25T06:20:59.916Z,99647.09
2022-12-25T06:23:28.816Z,99637.13
2022-12-25T06:25:56.350Z,99631.22
2022-12-25T06:28:23.807Z,99636.25
2022-12-25T06:30:51.303Z,99620.75
2022-12-25T06:33:18.780Z,99630.44
2022-12-25T06:35:47.830Z,99613.25
2022-12-25T06:38:15.293Z,99616.00
2022-12-25T06:40:44.106Z,99605.22
2022-12-25T06:43:11.548Z,99607.66
2022-12-25T06:45:39.113Z,99608.53
2022-12-25T06:48:06.807Z,99582.06
2022-12-25T06:50:34.331Z,99589.84
2022-12-25T06:53:01.792Z,99586.66
2022-12-25T06:55:29.264Z,99592.28
2022-12-25T06:58:00.923Z,99581.94
2022-12-25T07:00:30.829Z,99578.09
2022-12-25T07:02:58.444Z,99588.03
2022-12-25T07:05:26.043Z,99591.41
2022-12-25T07:07:53.566Z,99588.31
2022-12-25T07:10:21.025Z,99588.81
2022-12-25T07:12:48.510Z,99578.66
2022-12-25T07:15:17.811Z,99582.50
2022-12-25T07:17:45.328Z,99583.34
2022-12-25T07:20:12.831Z,99575.44
2022-12-25T07:22:40.397Z,99554.47
2022-12-25T07:25:08.543Z,99539.09
2022-12-25T07:27:36.024Z,99543.22
2022-12-25T07:30:03.609Z,99545.25
2022-12-25T07:32:32.877Z,99561.38
2022-12-25T07:35:00.352Z,99558.09
2022-12-25T07:37:27.830Z,99555.47
2022-12-25T07:39:55.372Z,99544.84
2022-12-25T07:42:25.277Z,99534.84
2022-12-25T07:44:53.042Z,99525.81
2022-12-25T07:47:20.514Z,99535.00
2022-12-25T07:49:49.320Z,99538.94
2022-12-25T07:52:16.799Z,99528.16
2022-12-25T07:54:44.336Z,99510.16
2022-12-25T07:57:11.788Z,99514.78
2022-12-25T07:59:39.243Z,99510.78
2022-12-25T08:02:07.059Z,99504.00
2022-12-25T08:04:34.861Z,99498.28
2022-12-25T08:07:03.667Z,99493.19
2022-12-25T08:09:31.113Z,99491.06
2022-12-25T08:11:58.600Z,99493.00
2022-12-25T08:14:26.122Z,99497.00
2022-12-25T08:16:53.658Z,99506.59
2022-12-25T08:19:21.213Z,99506.19
2022-12-25T08:21:48.662Z,99514.78
2022-12-25T08:24:17.545Z,99515.59
2022-12-25T08:26:45.020Z,99521.34
2022-12-25T08:29:12.535Z,99517.97
2022-12-25T08:31:46.077Z,99505.09
2022-12-25T08:34:14.691Z,99498.69
2022-12-25T08:36:42.386Z,99526.88
2022-12-25T08:39:09.895Z,99531.16
2022-12-25T08:41:38.791Z,99510.75
2022-12-25T08:44:07.452Z,99500.88
2022-12-25T08:46:35.284Z,99498.78
2022-12-25T08:49:02.847Z,99493.19
2022-12-25T08:51:30.332Z,99478.69
2022-12-25T08:54:01.386Z,99489.94
2022-12-25T08:56:29.291Z,99505.22
2022-12-25T08:58:58.182Z,99529.94
2022-12-25T09:01:25.738Z,99561.81
2022-12-25T09:03:53.378Z,99561.13
2022-12-25T09:06:20.864Z,99560.31
2022-12-25T09:08:49.818Z,99563.94
2022-12-25T09:11:18.775Z,99558.09
2022-12-25T09:13:46.385Z,99545.53
2022-12-25T09:16:17.784Z,99528.78
2022-12-25T09:18:45.561Z,99519.94
2022-12-25T09:21:15.602Z,99515.59
2022-12-25T09:23:43.559Z,99513.00
2022-12-25T09:26:14.487Z,99497.72
2022-12-25T09:28:48.442Z,99493.84
2022-12-25T09:31:19.757Z,99492.66
2022-12-25T09:33:47.492Z,99486.63
2022-12-25T09:36:14.989Z,99486.50
2022-12-25T09:38:42.446Z,99508.91
2022-12-25T09:41:18.258Z,99511.25
2022-12-25T09:43:50.938Z,99511.50
2022-12-25T09:46:22.784Z,99524.22
2022-12-25T09:49:00.125Z,99523.28
2022-12-25T09:51:30.653Z,99514.84
2022-12-25T09:54:01.616Z,99522.28
2022-12-25T09:56:29.130Z,99541.00
2022-12-25T09:58:56.640Z,99527.22
2022-12-25T10:01:34.964Z,99543.97
2022-12-25T10:04:22.984Z,99538.88
2022-12-25T10:07:00.810Z,99544.81
2022-12-25T10:09:46.288Z,99534.16
2022-12-25T10:12:31.230Z,99519.75
2022-12-25T10:15:11.409Z,99514.19
2022-12-25T10:17:58.596Z,99505.13
2022-12-25T10:20:39.886Z,99495.66
2022-12-25T10:23:15.289Z,99497.28
2022-12-25T10:25:44.372Z,99496.47
2022-12-25T10:28:15.363Z,99478.13
2022-12-25T10:30:45.079Z,99477.41
2022-12-25T10:33:17.375Z,99476.47
2022-12-25T10:35:45.636Z,99441.19
2022-12-25T10:38:15.810Z,99431.72
2022-12-25T10:40:55.857Z,99419.13
2022-12-25T10:43:29.379Z,99432.56
2022-12-25T10:45:56.954Z,99437.66
2022-12-25T10:48:28.988Z,99431.06
2022-12-25T10:50:57.077Z,99425.84
2022-12-25T10:53:26.544Z,99430.28
2022-12-25T10:55:57.183Z,99434.22
2022-12-25T10:58:24.690Z,99431.72
2022-12-25T11:00:54.458Z,99443.22
2022-12-25T11:03:25.660Z,99436.16
2022-12-25T11:05:55.162Z,99419.56
2022-12-25T11:08:24.527Z,99418.63
2022-12-25T11:10:57.886Z,99411.41
2022-12-25T11:13:27.953Z,99419.28
2022-12-25T11:16:09.378Z,99418.06
2022-12-25T11:18:46.881Z,99418.25
2022-12-25T11:21:18.987Z,99409.16
2022-12-25T11:23:48.357Z,99410.47
2022-12-25T11:26:17.562Z,99396.56
2022-12-25T11:28:46.263Z,99404.06
2022-12-25T11:31:16.279Z,99391.69
2022-12-25T11:33:52.620Z,99382.72
2022-12-25T11:36:29.521Z,99377.84
2022-12-25T11:38:58.234Z,99374.78
2022-12-25T11:41:33.209Z,99353.97
2022-12-25T11:44:05.112Z,99341.84
2022-12-25T11:46:41.228Z,99333.81
2022-12-25T11:49:15.516Z,99332.16
2022-12-25T11:51:48.311Z,99316.22
2022-12-25T11:54:21.053Z,99302.34
2022-12-25T11:56:49.737Z,99299.19
2022-12-25T11:59:24.001Z,99292.72
2022-12-25T12:01:55.805Z,99293.78
2022-12-25T12:04:31.754Z,99293.53
2022-12-25T12:07:07.006Z,99296.78
2022-12-25T12:09:45.033Z,99291.59
2022-12-25T12:12:18.976Z,99294.72
2022-12-25T12:14:54.300Z,99283.22
2022-12-25T12:17:21.671Z,99271.00
2022-12-25T12:19:49.362Z,99275.81
2022-12-25T12:22:22.214Z,99286.38
2022-12-25T12:24:56.638Z,99268.88
2022-12-25T12:27:28.307Z,99263.44
2022-12-25T12:29:58.783Z,99258.66
2022-12-25T12:32:37.991Z,99253.34
2022-12-25T12:35:16.595Z,99259.50
2022-12-25T12:37:47.537Z,99246.78
2022-12-25T12:40:29.692Z,99266.69
2022-12-25T12:42:57.661Z,99266.44
2022-12-25T12:45:27.583Z,99266.19
2022-12-25T12:47:55.231Z,99264.66
2022-12-25T12:50:35.306Z,99259.84
2022-12-25T12:53:27.388Z,99251.50
2022-12-25T12:55:55.339Z,99261.03
2022-12-25T12:58:32.939Z,99246.84
2022-12-25T13:01:20.004Z,99246.59
2022-12-25T13:04:09.975Z,99244.78
2022-12-25T13:06:44.411Z,99238.50
2022-12-25T13:09:32.432Z,99221.25
2022-12-25T13:12:00.501Z,99220.50
2022-12-25T13:14:28.381Z,99221.38
2022-12-25T13:16:55.932Z,99221.97
2022-12-25T13:19:25.889Z,99215.13
2022-12-25T13:21:55.561Z,99219.03
2022-12-25T13:24:26.607Z,99218.59
2022-12-25T13:26:54.535Z,99202.06
2022-12-25T13:29:30.931Z,99206.28
2022-12-25T13:31:59.509Z,99207.13
2022-12-25T13:34:31.136Z,99205.91
2022-12-25T13:36:59.474Z,99199.09
2022-12-25T13:39:29.374Z,99193.19
2022-12-25T13:42:10.304Z,99184.50
2022-12-25T13:44:44.850Z,99181.56
2022-12-25T13:47:21.812Z,99185.44
2022-12-25T13:49:50.548Z,99182.00
2022-12-25T13:52:21.555Z,99182.78
2022-12-25T13:54:55.847Z,99184.59
2022-12-25T13:57:27.008Z,99191.56
2022-12-25T13:59:54.841Z,99187.63
2022-12-25T14:02:27.947Z,99186.38
2022-12-25T14:04:55.756Z,99191.75
2022-12-25T14:07:24.904Z,99185.56
2022-12-25T14:09:58.324Z,99180.69
2022-12-25T14:12:26.885Z,99183.38
2022-12-25T14:14:55.692Z,99179.66
2022-12-25T14:17:23.970Z,99169.81
2022-12-25T14:20:04.095Z,99177.88
2022-12-25T14:22:35.927Z,99182.19
2022-12-25T14:25:15.674Z,99168.09
2022-12-25T14:27:49.881Z,99163.66
2022-12-25T14:30:18.240Z,99162.97
2022-12-25T14:32:50.752Z,99173.06
2022-12-25T14:35:23.339Z,99154.63
2022-12-25T14:37:56.848Z,99151.53
2022-12-25T14:40:30.284Z,99156.28
2022-12-25T14:42:59.194Z,99161.25
2022-12-25T14:45:30.036Z,99163.75
2022-12-25T14:47:59.869Z,99164.44
2022-12-25T14:50:30.300Z,99164.38
2022-12-25T14:52:59.514Z,99158.00
2022-12-25T14:55:30.427Z,99160.84
2022-12-25T14:57:59.702Z,99164.19
2022-12-25T15:00:31.610Z,99158.84
2022-12-25T15:03:00.919Z,99164.28
2022-12-25T15:05:34.594Z,99166.94
2022-12-25T15:08:18.634Z,99161.41
2022-12-25T15:11:04.230Z,99166.16
2022-12-25T15:13:32.437Z,99173.00
2022-12-25T15:16:06.649Z,99169.25
2022-12-25T15:18:38.484Z,99165.91
2022-12-25T15:21:06.854Z,99177.91
2022-12-25T15:23:34.319Z,99158.69
2022-12-25T15:26:03.174Z,99152.34
2022-12-25T15:28:30.658Z,99152.63
2022-12-25T15:30:58.203Z,99153.09
2022-12-25T15:33:25.717Z,99141.59
2022-12-25T15:35:53.163Z,99131.22
2022-12-25T15:38:20.764Z,99132.63
2022-12-25T15:40:48.370Z,99120.66
2022-12-25T15:46:05.261Z,99122.47
2022-12-25T15:48:32.753Z,99125.50
2022-12-25T15:51:00.248Z,99109.53
2022-12-25T15:53:27.747Z,99118.19
2022-12-25T15:55:55.687Z,99124.00
2022-12-25T15:58:24.552Z,99112.69
2022-12-25T16:00:52.437Z,99115.06
2022-12-25T16:03:19.949Z,99121.16
2022-12-25T16:05:47.493Z,99116.09
2022-12-25T16:08:14.964Z,99126.31
2022-12-25T16:10:42.471Z,99117.16
2022-12-25T16:13:09.974Z,99119.44
2022-12-25T16:15:38.859Z,99125.63
2022-12-25T16:18:06.584Z,99122.69
2022-12-25T16:20:36.003Z,99116.56
2022-12-25T16:23:03.512Z,99113.84
2022-12-25T16:25:31.085Z,99098.22
2022-12-25T16:27:58.619Z,99101.91
2022-12-25T16:30:26.193Z,99106.97
2022-12-25T16:32:55.038Z,99094.69
2022-12-25T16:35:22.502Z,99098.97
2022-12-25T16:37:49.959Z,99094.59
2022-12-25T16:40:17.948Z,99089.25
2022-12-25T16:42:45.429Z,99091.09
2022-12-25T16:45:13.604Z,99096.69
2022-12-25T16:47:41.125Z,99085.75
2022-12-25T16:50:10.951Z,99088.78
2022-12-25T16:52:38.443Z,99089.91
2022-12-25T16:55:06.589Z,99092.78
2022-12-25T16:57:34.798Z,99090.50
2022-12-25T17:00:02.300Z,99093.25
2022-12-25T17:02:30.211Z,99086.97
2022-12-25T17:04:57.880Z,99083.94
2022-12-25T17:07:26.781Z,99094.69
2022-12-25T17:09:54.266Z,99082.69
2022-12-25T17:12:21.742Z,99079.53
2022-12-25T17:14:49.256Z,99079.81
2022-12-25T17:17:16.804Z,99085.72
2022-12-25T17:19:44.524Z,99081.53
2022-12-25T17:22:12.051Z,99073.34
2022-12-25T17:24:41.441Z,99079.81
2022-12-25T17:27:09.745Z,99081.94
2022-12-25T17:29:38.932Z,99074.59
2022-12-25T17:32:07.241Z,99079.66
2022-12-25T17:34:35.049Z,99087.81
2022-12-25T17:37:02.518Z,99084.97
2022-12-25T17:39:30.068Z,99088.97
2022-12-25T17:41:58.896Z,99080.97
2022-12-25T17:44:27.193Z,99092.22
2022-12-25T17:46:54.718Z,99083.94
2022-12-25T17:49:23.184Z,99096.50
2022-12-25T17:51:50.728Z,99088.78
2022-12-25T17:54:18.275Z,99090.19
2022-12-25T17:56:45.782Z,99086.88
2022-12-25T17:59:18.272Z,99094.03
2022-12-25T18:01:48.007Z,99098.22
2022-12-25T18:04:15.763Z,99096.69
2022-12-25T18:06:43.545Z,99090.69
2022-12-25T18:09:11.133Z,99092.88
2022-12-25T18:11:40.770Z,99105.72
2022-12-25T18:14:09.960Z,99103.53
2022-12-25T18:16:42.031Z,99102.50
2022-12-25T18:19:10.122Z,99100.66
2022-12-25T18:21:38.295Z,99094.59
2022-12-25T18:24:07.717Z,99102.66
2022-12-25T18:26:35.372Z,99101.16
2022-12-25T18:29:03.155Z,99090.38
2022-12-25T18:31:31.903Z,99102.56
2022-12-25T18:34:01.592Z,99096.09
2022-12-25T18:36:30.730Z,99109.81
2022-12-25T18:38:59.087Z,99105.81
2022-12-25T18:41:27.931Z,99104.84
2022-12-25T18:43:56.177Z,99099.88
2022-12-25T18:46:25.670Z,99102.44
2022-12-25T18:48:53.652Z,99098.81
2022-12-25T18:51:22.834Z,99103.22
2022-12-25T18:53:50.887Z,99094.66
2022-12-25T18:56:18.919Z,99096.94
2022-12-25T18:58:47.281Z,99098.81
2022-12-25T19:01:17.568Z,99098.44
2022-12-25T19:03:46.004Z,99099.78
2022-12-25T19:06:18.655Z,99103.50
2022-12-25T19:08:47.666Z,99092.16
2022-12-25T19:11:15.466Z,99101.22
2022-12-25T19:13:43.534Z,99105.03
2022-12-25T19:16:11.393Z,99111.97
2022-12-25T19:18:39.379Z,99110.44
2022-12-25T19:21:09.553Z,99108.94
2022-12-25T19:23:38.337Z,99115.31
2022-12-25T19:26:09.116Z,99102.84
2022-12-25T19:28:36.895Z,99106.66
2022-12-25T19:31:07.278Z,99118.81
2022-12-25T19:33:36.491Z,99116.00
2022-12-25T19:36:05.884Z,99115.38
2022-12-25T19:38:33.426Z,99109.41
2022-12-25T19:41:05.666Z,99110.72
2022-12-25T19:43:36.902Z,99112.94
2022-12-25T19:46:05.367Z,99118.84
2022-12-25T19:48:33.987Z,99125.13
2022-12-25T19:51:02.108Z,99123.81
2022-12-25T19:53:30.574Z,99134.69
2022-12-25T19:56:02.715Z,99141.50
2022-12-25T19:58:30.645Z,99136.19
2022-12-25T20:01:00.871Z,99141.13
2022-12-25T20:03:28.467Z,99149.13
2022-12-25T20:05:56.499Z,99149.91
2022-12-25T20:08:24.961Z,99147.22
2022-12-25T20:10:52.826Z,99148.06
2022-12-25T20:13:20.503Z,99151.78
2022-12-25T20:15:48.742Z,99135.69
2022-12-25T20:18:18.312Z,99148.38
2022-12-25T20:20:46.208Z,99143.25
2022-12-25T20:23:13.683Z,99143.81
2022-12-25T20:25:42.135Z,99144.56
2022-12-25T20:28:10.225Z,99151.03
2022-12-25T20:30:39.554Z,99138.09
2022-12-25T20:33:07.089Z,99145.16
2022-12-25T20:35:35.867Z,99151.63
2022-12-25T20:38:03.408Z,99153.50
2022-12-25T20:40:32.440Z,99148.28
2022-12-25T20:43:09.094Z,99147.91
2022-12-25T20:45:40.974Z,99152.09
2022-12-25T20:48:08.513Z,99152.19
2022-12-25T20:50:37.306Z,99152.41
2022-12-25T20:53:04.783Z,99160.81
2022-12-25T20:55:32.292Z,99162.78
2022-12-25T20:57:59.794Z,99157.44
2022-12-25T21:00:27.569Z,99168.31
2022-12-25T21:02:55.190Z,99157.03
2022-12-25T21:05:22.788Z,99147.75
2022-12-25T21:07:51.624Z,99154.88
2022-12-25T21:10:19.413Z,99170.28
2022-12-25T21:12:46.931Z,99164.09
2022-12-25T21:15:15.838Z,99154.81
2022-12-25T21:17:43.531Z,99150.41
2022-12-25T21:20:11.871Z,99147.44
2022-12-25T21:22:39.349Z,99148.09
2022-12-25T21:25:08.779Z,99147.25
2022-12-25T21:27:36.218Z,99154.09
2022-12-25T21:30:14.435Z,99147.69
2022-12-25T21:33:00.956Z,99158.59
2022-12-25T21:35:28.504Z,99152.38
2022-12-25T21:37:55.969Z,99150.41
2022-12-25T21:40:24.775Z,99152.25
2022-12-25T21:42:53.019Z,99153.16
2022-12-25T21:45:20.521Z,99160.94
2022-12-25T21:48:00.313Z,99147.66
2022-12-25T21:50:48.490Z,99146.53
2022-12-25T21:53:16.721Z,99125.94
2022-12-25T21:55:56.264Z,99141.56
2022-12-25T21:58:23.891Z,99171.44
2022-12-25T22:00:51.431Z,99178.91
2022-12-25T22:03:19.132Z,99200.06
2022-12-25T22:06:04.692Z,99228.44
2022-12-25T22:08:32.208Z,99235.38
2022-12-25T22:11:03.754Z,99192.91
2022-12-25T22:13:48.807Z,99212.97
2022-12-25T22:16:33.846Z,99212.06
2022-12-25T22:19:18.911Z,99198.19
2022-12-25T22:21:46.474Z,99201.25
2022-12-25T22:24:14.320Z,99212.78
2022-12-25T22:26:44.469Z,99219.34
2022-12-25T22:29:11.971Z,99207.63
2022-12-25T22:31:46.390Z,99208.78
2022-12-25T22:34:15.995Z,99223.31
2022-12-25T22:36:43.636Z,99216.66
2022-12-25T22:39:11.169Z,99225.75
2022-12-25T22:41:38.667Z,99217.16
2022-12-25T22:44:23.166Z,99223.44
2022-12-25T22:46:50.991Z,99223.81
2022-12-25T22:49:18.750Z,99218.00
2022-12-25T22:51:47.268Z,99215.59
2022-12-25T22:54:16.169Z,99219.41
2022-12-25T22:56:45.478Z,99224.91
2022-12-25T22:59:15.717Z,99230.06
2022-12-25T23:01:43.471Z,99227.03
2022-12-25T23:04:12.369Z,99217.47
2022-12-25T23:06:40.582Z,99222.94
2022-12-25T23:09:09.983Z,99225.25
2022-12-25T23:11:37.477Z,99225.34
2022-12-25T23:14:24.272Z,99235.75
2022-12-25T23:16:53.113Z,99232.88
2022-12-25T23:19:38.504Z,99238.31
2022-12-25T23:22:23.837Z,99230.50
2022-12-25T23:25:08.028Z,99240.84
2022-12-25T23:27:35.484Z,99232.13
2022-12-25T23:30:02.045Z,99232.00
2022-12-25T23:32:30.888Z,99233.31
2022-12-25T23:34:58.341Z,99232.94
2022-12-25T23:37:25.853Z,99238.09
2022-12-25T23:39:54.595Z,99225.63
2022-12-25T23:42:22.254Z,99226.38
2022-12-25T23:44:49.929Z,99228.31
2022-12-25T23:47:17.463Z,99229.06
2022-12-25T23:49:46.267Z,99220.19
2022-12-25T23:52:13.888Z,99228.41
2022-12-25T23:54:41.482Z,99221.53
2022-12-25T23:57:08.976Z,99225.47
2022-12-25T23:59:36.518Z,99216.69
